LAX weather

Los Angeles International Airport
Los Angeles, California, United States

Public forecast

Using degrees Fahrenheit for public forecast. Weather courtesy of forecast.io.

METAR (pilot weather report)

Retrieved 2017/02/24 13:53 UTC (54 minutes ago):

KLAX 241353Z 35005KT 10SM FEW250 08/M04 A3013

TAF (pilot weather forecast)

Retrieved 2017/02/24 12:33 UTC (2 hours ago):

TAF KLAX 241129Z 2412/2518 03005KT P6SM SKC FM242100 26012KT P6SM SKC FM250400 VRB03KT P6SM SKC